»·PEaware :: N123RG KLAX-KSBA

N123RG :: KLAX-KSBA

FLIGHT INFORMATION

Flight Status: Arrived
Operator: Privately registered:
United States
More flights under this callsign
Pilot: Anonymous 23223 (23223)
Aircraft: CESSNA 172 SKYHAWK
(C172)
More flights by this aircraft type
Origin: KLAX Los Angeles Intl
United States
Destination: KSBA Santa Barbara Mun
United States
More flights between these airports :: More routes between these airports
Route: VTU8 VTU VTU282 KWANG
File this flight plan on PilotEdge
Remarks:
Altitude:
(Current/Filed)
6,000ft
Speed:
(Current/Filed)
135kts
Departed: 07-Feb-19 03:52 PM
Arrived: 07-Feb-19 04:42 PM
Distance/Time
Traveled:
77nm/0:50
Distance/Time
To Go:
Arrived

Flight Plot

Page will automatically refresh every two minutes.

Flight plan parsing failed; only flown route is shown


Map Options




Map Legend


Flown Route
Filed Route
Departure Airport
Arrival Airport
Navaid (VOR, NDB)
Fix

Horizontal Profiles

Position Reports

Time Latitude Longitude Heading Altitude Ground
Speed
07-Feb-19 15:36 33.934796 -118.390878 42 129ft 0kts
07-Feb-19 15:37 33.934796 -118.390877 42 129ft 0kts
07-Feb-19 15:38 33.934796 -118.390877 42 129ft 0kts
07-Feb-19 15:39 33.934797 -118.390877 42 129ft 0kts
07-Feb-19 15:40 33.934797 -118.390876 42 129ft 0kts
07-Feb-19 15:41 33.934797 -118.390876 42 129ft 0kts
07-Feb-19 15:42 33.934798 -118.390876 42 129ft 0kts
07-Feb-19 15:43 33.934798 -118.390875 42 129ft 0kts
07-Feb-19 15:44 33.934798 -118.390875 42 129ft 0kts
07-Feb-19 15:45 33.934799 -118.390875 42 129ft 0kts
07-Feb-19 15:46 33.934807 -118.390865 42 129ft 0kts
07-Feb-19 15:47 33.935332 -118.390077 66 129ft 1kts
07-Feb-19 15:48 33.936261 -118.383082 37 129ft 6kts
07-Feb-19 15:48 33.936497 -118.382954 3 129ft 0kts
07-Feb-19 15:50 33.936498 -118.382954 3 129ft 0kts
07-Feb-19 15:51 33.937463 -118.384024 266 129ft 13kts
07-Feb-19 15:51 33.935623 -118.400866 266 364ft 105kts
07-Feb-19 15:52 33.933202 -118.439381 266 1048ft 119kts
07-Feb-19 15:54 33.930336 -118.485528 266 1966ft 114kts
07-Feb-19 15:54 33.928383 -118.516376 266 2700ft 109kts
07-Feb-19 15:55 33.926706 -118.552469 281 3589ft 105kts
07-Feb-19 15:56 33.937150 -118.584895 289 4484ft 102kts
07-Feb-19 15:58 33.949680 -118.620701 291 5516ft 95kts
07-Feb-19 15:58 33.958925 -118.645858 292 6016ft 108kts
07-Feb-19 15:59 33.972988 -118.683897 292 5997ft 133kts
07-Feb-19 16:00 33.988336 -118.725597 292 5994ft 137kts
07-Feb-19 16:01 34.003752 -118.767568 292 5993ft 137kts
07-Feb-19 16:02 34.019124 -118.809476 292 5993ft 136kts
07-Feb-19 16:03 34.034367 -118.851091 292 5994ft 135kts
07-Feb-19 16:04 34.049585 -118.892687 292 5994ft 135kts
07-Feb-19 16:05 34.064805 -118.934338 292 5995ft 135kts
07-Feb-19 16:06 34.079992 -118.975959 292 5994ft 135kts
07-Feb-19 16:07 34.095176 -119.017612 293 5995ft 135kts
07-Feb-19 16:08 34.112036 -119.058319 296 5994ft 135kts
07-Feb-19 16:09 34.129604 -119.098804 296 5994ft 135kts
07-Feb-19 16:10 34.147164 -119.139159 296 5994ft 136kts
07-Feb-19 16:11 34.164703 -119.179476 297 5993ft 136kts
07-Feb-19 16:12 34.182369 -119.219881 297 5993ft 136kts
07-Feb-19 16:13 34.199884 -119.260233 296 5993ft 135kts
07-Feb-19 16:14 34.217441 -119.300755 296 5996ft 135kts
07-Feb-19 16:15 34.234951 -119.341214 297 5994ft 135kts
07-Feb-19 16:16 34.252451 -119.381703 296 5994ft 136kts
07-Feb-19 16:17 34.269931 -119.422186 296 5993ft 135kts
07-Feb-19 16:18 34.287382 -119.462659 296 5992ft 135kts
07-Feb-19 16:19 34.304964 -119.503091 297 5993ft 136kts
07-Feb-19 16:20 34.322665 -119.543565 297 5994ft 136kts
07-Feb-19 16:21 34.336940 -119.585254 267 5913ft 140kts
07-Feb-19 16:22 34.331763 -119.636063 264 5142ft 157kts
07-Feb-19 16:23 34.326185 -119.688140 264 4336ft 149kts
07-Feb-19 16:24 34.321142 -119.733845 264 3854ft 124kts
07-Feb-19 16:25 34.316529 -119.773773 264 3540ft 118kts
07-Feb-19 16:26 34.312023 -119.813031 264 3199ft 120kts
07-Feb-19 16:27 34.311255 -119.852015 291 2993ft 110kts
07-Feb-19 16:28 34.322753 -119.885522 291 2992ft 106kts
07-Feb-19 16:29 34.334108 -119.918524 292 2994ft 106kts
07-Feb-19 16:30 34.345448 -119.951417 291 2996ft 105kts
07-Feb-19 16:31 34.356788 -119.984331 292 2993ft 106kts
07-Feb-19 16:32 34.368170 -120.017389 292 2993ft 106kts
07-Feb-19 16:33 34.383305 -120.044656 342 3010ft 105kts
07-Feb-19 16:34 34.412700 -120.051128 5 2987ft 112kts
07-Feb-19 16:35 34.426303 -120.019342 100 2995ft 109kts
07-Feb-19 16:36 34.423934 -119.983053 92 2898ft 115kts
07-Feb-19 16:37 34.425131 -119.941193 89 1913ft 134kts
07-Feb-19 16:38 34.425569 -119.902845 86 887ft 92kts
07-Feb-19 16:39 34.426709 -119.873515 86 367ft 83kts
07-Feb-19 16:40 34.427682 -119.846305 89 13ft 66kts
07-Feb-19 16:41 34.428373 -119.838091 351 13ft 0kts
07-Feb-19 16:42 34.429548 -119.838471 342 13ft 14kts
07-Feb-19 16:43 34.432820 -119.835028 205 13ft 0kts

Navigation Log

Ident Type
Flight plan parsing failed, navigation log unavailable